Time;durP1;ratioP1;P1;durP2;ratioP2;P2;SDS_P1;SDS_P2;PMS_P1;PMS_P2;Temp;Humidity;BMP_temperature;BMP_pressure;BME280_temperature;BME280_humidity;BME280_pressure;Samples;Min_cycle;Max_cycle;Signal;HPM_P1;HPM_P2
2022/08/15 00:01:16;;;;;;;6.13;5.30;;;;;;;18.92;100.00;95578.88;5060835;28;20235;-84
2022/08/15 00:04:05;;;;;;;8.93;5.60;;;;;;;18.74;100.00;95566.09;5078196;28;20201;-84
2022/08/15 00:06:45;;;;;;;8.47;6.10;;;;;;;18.60;100.00;95560.59;5064337;28;20208;-84
2022/08/15 00:09:18;;;;;;;8.10;5.57;;;;;;;18.48;100.00;95563.75;5064080;28;20212;-84
2022/08/15 00:12:00;;;;;;;8.50;5.90;;;;;;;18.49;100.00;95565.38;5060985;28;20229;-83
2022/08/15 00:14:39;;;;;;;8.70;5.57;;;;;;;18.51;100.00;95557.72;5059935;28;20225;-84
2022/08/15 00:17:23;;;;;;;5.97;5.37;;;;;;;18.53;100.00;95565.63;5055815;28;20205;-84
2022/08/15 00:20:20;;;;;;;5.53;5.03;;;;;;;18.54;100.00;95557.09;5060716;28;20215;-84
2022/08/15 00:22:57;;;;;;;5.43;4.93;;;;;;;18.58;100.00;95564.72;5061410;28;20287;-83
2022/08/15 00:25:45;;;;;;;6.83;5.50;;;;;;;18.46;100.00;95548.75;5052687;28;20204;-83
2022/08/15 00:28:16;;;;;;;8.30;5.60;;;;;;;18.28;100.00;95558.66;5073668;28;20213;-83
2022/08/15 00:30:47;;;;;;;12.10;5.47;;;;;;;18.12;100.00;95549.03;5062628;28;20218;-83
2022/08/15 00:33:24;;;;;;;6.03;5.43;;;;;;;18.11;100.00;95559.19;5074747;28;20225;-84
2022/08/15 00:36:01;;;;;;;6.60;5.60;;;;;;;18.11;100.00;95553.72;5058796;28;20301;-84
2022/08/15 00:38:34;;;;;;;7.60;5.93;;;;;;;18.12;100.00;95555.31;5059023;28;20241;-83
2022/08/15 00:43:53;;;;;;;7.47;5.67;;;;;;;18.21;100.00;95565.56;5057149;28;20220;-83
2022/08/15 00:46:26;;;;;;;7.43;5.90;;;;;;;18.18;100.00;95561.53;5073912;28;20250;-84
2022/08/15 00:48:57;;;;;;;7.40;6.43;;;;;;;18.21;100.00;95558.19;5063657;28;20225;-84
2022/08/15 00:51:35;;;;;;;6.57;5.77;;;;;;;18.24;100.00;95565.00;5081066;28;20250;-84
2022/08/15 00:54:16;;;;;;;6.93;5.83;;;;;;;18.33;100.00;95555.00;5055500;28;20258;-84
2022/08/15 00:56:48;;;;;;;6.77;5.57;;;;;;;18.40;100.00;95555.44;5058501;28;20229;-83
2022/08/15 00:59:23;;;;;;;9.87;5.80;;;;;;;18.51;100.00;95554.16;5061931;28;20217;-83
2022/08/15 01:01:56;;;;;;;7.27;5.90;;;;;;;18.49;100.00;95553.63;5060671;28;20209;-83
2022/08/15 01:04:25;;;;;;;6.20;5.60;;;;;;;18.45;100.00;95552.63;5057609;28;20210;-83
2022/08/15 01:06:58;;;;;;;7.40;5.67;;;;;;;18.42;100.00;95548.56;5057831;28;20278;-84
2022/08/15 01:09:29;;;;;;;6.37;5.63;;;;;;;18.25;100.00;95547.50;5075656;28;20208;-83
2022/08/15 01:12:03;;;;;;;8.37;6.17;;;;;;;18.12;100.00;95549.84;5060703;28;20290;-83
2022/08/15 01:14:34;;;;;;;9.53;6.37;;;;;;;18.12;100.00;95549.84;5062568;28;20201;-84
2022/08/15 01:17:05;;;;;;;7.97;6.00;;;;;;;18.21;100.00;95552.72;5065126;28;20235;-83
2022/08/15 01:19:36;;;;;;;7.90;5.70;;;;;;;18.10;100.00;95540.34;5064995;28;20205;-84
2022/08/15 01:22:23;;;;;;;9.63;5.97;;;;;;;18.12;100.00;95543.56;5056030;28;20202;-83
2022/08/15 01:25:06;;;;;;;7.00;5.87;;;;;;;18.18;100.00;95547.88;5062005;28;20277;-83
2022/08/15 01:27:38;;;;;;;6.57;5.67;;;;;;;18.18;100.00;95544.31;5068280;28;20216;-83
2022/08/15 01:30:08;;;;;;;7.07;6.07;;;;;;;18.13;100.00;95543.28;5059899;28;20297;-83
2022/08/15 01:32:36;;;;;;;9.43;5.93;;;;;;;18.25;100.00;95552.94;5056297;28;20311;-84
2022/08/15 01:35:04;;;;;;;5.93;5.37;;;;;;;18.12;100.00;95541.66;5066868;28;20202;-83
2022/08/15 01:37:32;;;;;;;6.03;5.47;;;;;;;18.18;100.00;95552.53;5066239;28;20233;-84
2022/08/15 01:40:05;;;;;;;6.10;5.50;;;;;;;18.20;100.00;95555.78;5065639;28;20205;-83
2022/08/15 01:42:42;;;;;;;7.70;5.40;;;;;;;18.20;100.00;95556.59;5064530;28;20228;-83
2022/08/15 01:45:14;;;;;;;5.67;5.07;;;;;;;18.12;100.00;95544.41;5064750;28;20255;-84
2022/08/15 01:47:51;;;;;;;6.70;5.13;;;;;;;18.11;100.00;95553.72;5058949;28;20213;-82
2022/08/15 01:50:24;;;;;;;6.10;5.30;;;;;;;18.11;100.00;95555.63;5069918;28;20228;-84
2022/08/15 01:52:57;;;;;;;5.90;5.40;;;;;;;18.10;100.00;95546.63;5062662;28;20197;-83
2022/08/15 01:55:37;;;;;;;7.73;5.37;;;;;;;18.15;100.00;95546.53;5060934;28;20231;-84
2022/08/15 01:58:07;;;;;;;6.43;5.73;;;;;;;18.10;100.00;95541.16;5063408;28;20205;-83
2022/08/15 02:00:38;;;;;;;7.13;5.57;;;;;;;18.15;100.00;95535.63;5080651;28;20218;-83
2022/08/15 02:03:06;;;;;;;5.80;5.20;;;;;;;18.14;100.00;95541.38;5057077;28;20202;-83
2022/08/15 02:05:36;;;;;;;6.37;5.77;;;;;;;18.17;100.00;95551.72;5065239;28;20197;-84
2022/08/15 02:08:06;;;;;;;5.33;4.77;;;;;;;18.17;100.00;95568.09;5062628;28;20206;-83
2022/08/15 02:10:36;;;;;;;6.30;5.23;;;;;;;18.18;100.00;95547.06;5063851;28;20272;-84
2022/08/15 02:13:04;;;;;;;6.50;5.80;;;;;;;18.28;100.00;95563.31;5065032;28;20233;-84
2022/08/15 02:15:36;;;;;;;6.67;5.70;;;;;;;18.35;100.00;95566.47;5065324;28;20198;-83
2022/08/15 02:18:12;;;;;;;7.30;6.07;;;;;;;18.33;100.00;95568.66;5076702;28;20206;-85
2022/08/15 02:20:54;;;;;;;8.30;5.80;;;;;;;18.41;100.00;95570.72;5054975;28;20206;-85
2022/08/15 02:23:37;;;;;;;9.70;6.80;;;;;;;18.36;100.00;95560.69;5073938;28;20206;-86
2022/08/15 02:26:22;;;;;;;10.17;6.10;;;;;;;18.37;100.00;95572.44;5066797;28;20313;-85
2022/08/15 02:29:09;;;;;;;7.30;5.67;;;;;;;18.26;100.00;95570.97;5056690;28;20206;-86
2022/08/15 02:31:47;;;;;;;6.20;5.37;;;;;;;18.18;100.00;95580.66;5077396;28;20293;-86
2022/08/15 02:34:34;;;;;;;6.57;5.03;;;;;;;18.13;100.00;95565.16;5077913;28;20202;-85
2022/08/15 02:37:30;;;;;;;9.33;5.70;;;;;;;18.15;100.00;95573.03;5061347;28;20252;-86
2022/08/15 02:40:05;;;;;;;6.50;4.73;;;;;;;18.12;100.00;95571.72;5057360;28;20215;-85
2022/08/15 02:42:46;;;;;;;5.77;4.90;;;;;;;18.00;100.00;95568.63;5056667;28;20205;-85
2022/08/15 02:45:19;;;;;;;8.73;5.10;;;;;;;17.97;100.00;95574.69;5066189;28;20205;-86
2022/08/15 02:47:49;;;;;;;10.80;5.30;;;;;;;17.88;100.00;95562.78;5063550;28;20266;-85
2022/08/15 02:50:22;;;;;;;8.20;4.97;;;;;;;17.97;100.00;95574.69;5057497;28;20217;-85
2022/08/15 02:53:00;;;;;;;7.57;5.43;;;;;;;17.93;100.00;95576.38;5061652;28;20231;-85
2022/08/15 02:55:30;;;;;;;9.97;5.67;;;;;;;17.88;100.00;95576.44;5063256;28;20282;-84
2022/08/15 02:58:02;;;;;;;9.47;5.40;;;;;;;17.84;100.00;95575.44;5060282;28;20206;-85
2022/08/15 03:00:30;;;;;;;8.33;5.40;;;;;;;17.73;100.00;95569.28;5063686;28;20209;-85
2022/08/15 03:03:07;;;;;;;5.83;5.23;;;;;;;17.83;100.00;95567.53;5058165;28;20433;-85
2022/08/15 03:05:38;;;;;;;6.63;5.10;;;;;;;17.83;100.00;95556.59;5062577;28;20202;-85
2022/08/15 03:08:07;;;;;;;6.50;5.87;;;;;;;17.86;100.00;95548.66;5058162;28;20210;-85
2022/08/15 03:10:40;;;;;;;6.33;5.13;;;;;;;17.86;100.00;95545.91;5055248;28;20218;-84
2022/08/15 03:13:16;;;;;;;9.47;5.97;;;;;;;17.81;100.00;95548.69;5059815;28;20197;-84
2022/08/15 03:15:49;;;;;;;7.60;5.97;;;;;;;17.80;100.00;95552.53;5081337;28;20198;-84
2022/08/15 03:18:17;;;;;;;7.80;5.97;;;;;;;17.76;100.00;95546.06;5056281;28;20206;-84
2022/08/15 03:20:46;;;;;;;9.03;6.07;;;;;;;17.76;100.00;95552.34;5057262;28;20210;-84
2022/08/15 03:23:17;;;;;;;9.27;6.00;;;;;;;17.73;100.00;95552.09;5061263;28;20236;-84
2022/08/15 03:25:49;;;;;;;7.30;6.17;;;;;;;17.75;100.00;95537.06;5054006;28;20205;-84
2022/08/15 03:28:20;;;;;;;6.83;5.13;;;;;;;17.81;100.00;95545.97;5060405;28;20194;-84
2022/08/15 03:30:48;;;;;;;6.23;4.63;;;;;;;17.78;100.00;95538.34;5057337;28;20205;-84
2022/08/15 03:33:19;;;;;;;5.67;5.10;;;;;;;17.80;100.00;95544.34;5063021;28;20217;-84
2022/08/15 03:35:51;;;;;;;6.93;5.27;;;;;;;17.79;100.00;95548.19;5063614;28;20213;-84
2022/08/15 03:38:21;;;;;;;6.97;4.97;;;;;;;17.78;100.00;95539.16;5053425;28;20294;-84
2022/08/15 03:40:52;;;;;;;5.90;5.30;;;;;;;17.81;100.00;95542.44;5057721;28;20201;-84
2022/08/15 03:43:26;;;;;;;6.37;5.70;;;;;;;17.78;100.00;95541.09;5061541;28;20201;-84
2022/08/15 03:45:59;;;;;;;6.90;5.80;;;;;;;17.80;100.00;95546.25;5064369;28;20211;-84
2022/08/15 03:48:35;;;;;;;5.40;4.90;;;;;;;17.72;100.00;95537.63;5060993;28;20318;-83
2022/08/15 03:51:06;;;;;;;8.27;5.57;;;;;;;17.74;100.00;95538.16;5059257;28;20220;-83
2022/08/15 03:53:37;;;;;;;5.50;4.97;;;;;;;17.73;100.00;95546.63;5059252;28;20202;-84
2022/08/15 03:56:08;;;;;;;5.67;5.07;;;;;;;17.68;100.00;95543.97;5062645;28;20230;-83
2022/08/15 03:58:38;;;;;;;5.70;5.10;;;;;;;17.58;100.00;95538.63;5060177;28;20201;-83
2022/08/15 04:01:12;;;;;;;8.00;5.20;;;;;;;17.59;100.00;95551.19;5059766;28;20225;-83
2022/08/15 04:03:39;;;;;;;9.63;5.93;;;;;;;17.49;100.00;95543.13;5062345;28;20213;-83
2022/08/15 04:06:10;;;;;;;6.40;5.63;;;;;;;17.40;100.00;95538.31;5063386;28;20451;-84
2022/08/15 04:08:39;;;;;;;5.93;5.33;;;;;;;17.35;100.00;95546.53;5062084;28;20201;-83
2022/08/15 04:11:08;;;;;;;5.60;5.10;;;;;;;17.25;100.00;95540.44;5059809;28;20228;-83
2022/08/15 04:13:40;;;;;;;7.37;5.20;;;;;;;17.25;100.00;95541.25;5053197;28;20202;-84
2022/08/15 04:16:08;;;;;;;6.57;5.00;;;;;;;17.20;100.00;95548.66;5064292;28;20198;-83
2022/08/15 04:18:36;;;;;;;6.70;5.60;;;;;;;17.18;100.00;95540.75;5062175;28;20203;-84
2022/08/15 04:21:08;;;;;;;10.07;5.97;;;;;;;17.23;100.00;95548.09;5063665;28;20300;-84
2022/08/15 04:23:36;;;;;;;6.40;5.13;;;;;;;17.20;100.00;95537.75;5058393;28;20234;-83
2022/08/15 04:26:03;;;;;;;7.93;5.27;;;;;;;17.24;100.00;95536.88;5056913;28;20194;-83
2022/08/15 04:28:30;;;;;;;6.03;5.40;;;;;;;17.23;100.00;95535.25;5060368;28;20228;-83
2022/08/15 04:31:06;;;;;;;5.60;5.10;;;;;;;17.26;100.00;95537.41;5060723;28;20215;-84
2022/08/15 04:33:35;;;;;;;7.53;5.40;;;;;;;17.23;100.00;95542.63;5061193;28;20217;-83
2022/08/15 04:36:08;;;;;;;5.80;5.20;;;;;;;17.18;100.00;95535.31;5059794;28;20205;-84
2022/08/15 04:38:35;;;;;;;6.37;5.50;;;;;;;17.20;100.00;95541.28;5054212;28;20209;-85
2022/08/15 04:41:04;;;;;;;6.07;5.47;;;;;;;17.08;100.00;95535.44;5057066;28;20232;-84
2022/08/15 04:43:33;;;;;;;6.67;5.10;;;;;;;16.96;100.00;95535.03;5060499;28;20190;-84
2022/08/15 04:46:02;;;;;;;6.17;5.20;;;;;;;16.96;100.00;95543.22;5060931;28;20228;-83
2022/08/15 04:48:30;;;;;;;5.80;5.20;;;;;;;16.96;100.00;95538.56;5060121;28;20230;-84
2022/08/15 04:50:59;;;;;;;6.60;5.43;;;;;;;16.97;100.00;95545.66;5063577;28;20202;-84
2022/08/15 04:53:29;;;;;;;6.73;5.40;;;;;;;16.99;100.00;95545.38;5059891;28;20217;-84
2022/08/15 04:55:58;;;;;;;8.53;5.83;;;;;;;17.06;100.00;95545.03;5059263;28;20224;-84
2022/08/15 04:58:26;;;;;;;10.97;6.50;;;;;;;17.03;100.00;95547.22;5051076;28;20228;-85
2022/08/15 05:00:57;;;;;;;9.40;5.90;;;;;;;17.08;100.00;95545.53;5060804;28;20224;-84
2022/08/15 05:03:37;;;;;;;6.90;5.40;;;;;;;17.03;100.00;95549.94;5061190;28;20201;-84
2022/08/15 05:06:07;;;;;;;7.43;6.10;;;;;;;17.06;100.00;95550.47;5068432;28;20205;-84
2022/08/15 05:08:39;;;;;;;6.87;6.17;;;;;;;16.93;100.00;95554.69;5052002;28;20206;-84
2022/08/15 05:11:15;;;;;;;6.70;6.00;;;;;;;16.87;100.00;95553.13;5057107;28;20209;-84
2022/08/15 05:13:46;;;;;;;7.30;6.17;;;;;;;16.82;100.00;95550.47;5069937;28;20226;-84
2022/08/15 05:16:20;;;;;;;6.77;6.00;;;;;;;16.86;100.00;95556.94;5077883;28;20297;-84
2022/08/15 05:18:49;;;;;;;10.10;6.60;;;;;;;16.85;100.00;95558.03;5056563;28;20209;-84
2022/08/15 05:21:16;;;;;;;10.50;5.73;;;;;;;16.84;100.00;95564.63;5063601;28;20209;-84
2022/08/15 05:23:46;;;;;;;7.97;5.13;;;;;;;16.87;100.00;95567.56;5053552;28;20202;-84
2022/08/15 05:26:32;;;;;;;7.60;6.30;;;;;;;16.88;100.00;95566.47;5062168;28;20240;-84
2022/08/15 05:29:00;;;;;;;8.00;6.20;;;;;;;16.93;100.00;95571.06;5060316;28;20212;-84
2022/08/15 05:31:29;;;;;;;9.17;6.53;;;;;;;16.96;100.00;95570.47;5050644;28;20202;-84
2022/08/15 05:34:02;;;;;;;6.63;5.80;;;;;;;16.96;100.00;95562.31;5064878;28;20202;-84
2022/08/15 05:36:35;;;;;;;7.23;6.23;;;;;;;16.94;100.00;95556.31;5059486;28;20206;-84
2022/08/15 05:39:18;;;;;;;5.90;5.30;;;;;;;16.93;100.00;95554.69;5059440;28;20213;-85
2022/08/15 05:41:56;;;;;;;9.80;6.00;;;;;;;16.99;100.00;95548.09;5052059;28;20286;-84
2022/08/15 05:44:31;;;;;;;6.23;5.63;;;;;;;17.08;100.00;95562.72;5079519;28;20205;-83
2022/08/15 05:47:06;;;;;;;5.97;4.83;;;;;;;17.05;100.00;95555.13;5059134;28;20205;-84
2022/08/15 05:49:45;;;;;;;6.13;4.90;;;;;;;17.10;100.00;95563.22;5076340;28;20257;-84
2022/08/15 05:52:27;;;;;;;6.43;5.00;;;;;;;17.10;100.00;95555.03;5053786;28;20221;-84
2022/08/15 05:55:14;;;;;;;6.73;4.70;;;;;;;17.18;100.00;95559.06;5055053;28;20206;-84
2022/08/15 05:57:53;;;;;;;6.67;5.00;;;;;;;17.26;100.00;95564.69;5060653;28;20290;-84
2022/08/15 06:00:25;;;;;;;6.23;4.83;;;;;;;17.21;100.00;95561.19;5064167;28;21360;-84
2022/08/15 06:03:08;;;;;;;9.07;5.60;;;;;;;17.16;100.00;95548.44;5065107;28;20289;-84
2022/08/15 06:05:41;;;;;;;9.50;6.90;;;;;;;17.15;100.00;95555.00;5064434;28;20205;-85
2022/08/15 06:08:11;;;;;;;7.57;6.37;;;;;;;17.07;100.00;95560.28;5061317;28;20208;-84
2022/08/15 06:10:43;;;;;;;6.53;5.93;;;;;;;17.05;100.00;95557.84;5058613;28;20209;-84
2022/08/15 06:13:21;;;;;;;7.00;6.30;;;;;;;17.13;100.00;95553.66;5067172;28;20221;-85
2022/08/15 06:15:54;;;;;;;9.80;6.50;;;;;;;17.18;100.00;95561.81;5064509;28;20217;-84
2022/08/15 06:18:22;;;;;;;7.20;6.10;;;;;;;17.19;100.00;95564.22;5067251;28;20276;-84
2022/08/15 06:20:57;;;;;;;7.57;6.77;;;;;;;17.06;100.00;95554.00;5065252;28;20259;-84
2022/08/15 06:23:38;;;;;;;9.03;6.97;;;;;;;16.96;100.00;95565.03;5054196;28;20312;-84
2022/08/15 06:26:18;;;;;;;8.63;7.50;;;;;;;17.00;100.00;95553.28;5059596;28;20205;-85
2022/08/15 06:29:01;;;;;;;10.10;8.03;;;;;;;17.12;100.00;95555.56;5075190;28;20197;-84
2022/08/15 06:31:32;;;;;;;9.03;7.40;;;;;;;17.21;100.00;95555.75;5073575;28;20205;-84
2022/08/15 06:34:11;;;;;;;9.30;6.90;;;;;;;17.28;100.00;95565.19;5074213;28;20246;-84
2022/08/15 06:36:46;;;;;;;8.83;7.30;;;;;;;17.15;100.00;95557.72;5061535;28;20214;-84
2022/08/15 06:39:24;;;;;;;8.67;7.77;;;;;;;17.11;100.00;95553.94;5064328;28;20212;-84
2022/08/15 06:41:58;;;;;;;9.50;7.60;;;;;;;17.10;100.00;95552.31;5058335;28;20212;-85
2022/08/15 06:44:51;;;;;;;8.17;7.30;;;;;;;17.25;100.00;95557.63;5055591;28;20228;-84
2022/08/15 06:47:22;;;;;;;8.03;7.23;;;;;;;17.28;100.00;95551.56;5074916;28;20475;-84
2022/08/15 06:49:55;;;;;;;8.63;7.47;;;;;;;17.33;100.00;95554.25;5055829;28;20237;-84
2022/08/15 06:52:28;;;;;;;7.80;7.00;;;;;;;17.36;100.00;95550.09;5080244;28;20233;-85
2022/08/15 06:54:59;;;;;;;7.53;6.37;;;;;;;17.38;100.00;95551.44;5060235;28;20201;-80
2022/08/15 06:57:45;;;;;;;6.93;6.23;;;;;;;17.37;100.00;95552.53;5074797;28;20320;-82
2022/08/15 07:00:23;;;;;;;8.30;6.93;;;;;;;17.39;100.00;95546.78;5061057;28;20197;-79
2022/08/15 07:03:05;;;;;;;7.10;6.27;;;;;;;17.38;100.00;95545.97;5058392;28;20198;-80
2022/08/15 07:05:48;;;;;;;7.77;6.33;;;;;;;17.31;100.00;95545.53;5067588;28;20206;-80
2022/08/15 07:08:30;;;;;;;8.57;6.77;;;;;;;17.29;100.00;95539.53;5057346;28;20201;-80
2022/08/15 07:11:14;;;;;;;7.83;7.00;;;;;;;17.37;100.00;95541.63;5064202;28;20213;-81
2022/08/15 07:13:56;;;;;;;8.50;7.00;;;;;;;17.45;100.00;95539.34;5065820;28;20226;-81
2022/08/15 07:16:28;;;;;;;6.33;5.73;;;;;;;17.50;100.00;95542.84;5065974;28;20965;-80
2022/08/15 07:19:01;;;;;;;7.00;6.30;;;;;;;17.47;100.00;95532.50;5058635;28;20210;-80
2022/08/15 07:21:43;;;;;;;8.43;5.93;;;;;;;17.55;100.00;95528.28;5062913;28;20224;-81
2022/08/15 07:24:28;;;;;;;7.47;6.20;;;;;;;17.55;100.00;95525.56;5061077;28;20347;-80
2022/08/15 07:27:09;;;;;;;7.07;5.87;;;;;;;17.57;100.00;95531.53;5072860;28;20221;-81
2022/08/15 07:29:57;;;;;;;7.70;5.70;;;;;;;17.55;100.00;95528.28;5061578;28;20290;-80
2022/08/15 07:32:45;;;;;;;7.17;5.63;;;;;;;17.54;100.00;95523.94;5054037;28;20225;-80
2022/08/15 07:35:25;;;;;;;7.97;6.70;;;;;;;17.59;100.00;95526.59;5064051;28;20205;-81
2022/08/15 07:38:01;;;;;;;7.20;6.43;;;;;;;17.69;100.00;95529.22;5062917;28;20220;-85
2022/08/15 07:40:34;;;;;;;7.70;6.90;;;;;;;17.91;100.00;95528.63;5055389;28;20237;-85
2022/08/15 07:43:07;;;;;;;6.43;5.67;;;;;;;18.07;100.00;95522.63;5053306;28;20208;-85
2022/08/15 07:45:40;;;;;;;6.20;4.90;;;;;;;18.54;100.00;95518.03;5059115;28;20210;-86
2022/08/15 07:48:26;;;;;;;6.23;4.70;;;;;;;18.76;100.00;95520.13;5063643;28;20244;-85
2022/08/15 07:51:25;;;;;;;4.17;3.77;;;;;;;19.00;100.00;95512.53;5062003;28;20288;-86
2022/08/15 07:54:01;;;;;;;5.13;4.10;;;;;;;19.16;100.00;95504.81;5056649;28;20312;-86
2022/08/15 07:56:52;;;;;;;4.60;4.20;;;;;;;19.47;100.00;95507.75;5064668;28;20229;-85
2022/08/15 07:59:22;;;;;;;5.10;4.03;;;;;;;19.68;100.00;95497.19;5057600;28;21481;-85
2022/08/15 08:01:54;;;;;;;4.63;4.23;;;;;;;19.81;100.00;95499.09;5056046;28;20209;-85
2022/08/15 08:04:26;;;;;;;5.87;4.03;;;;;;;19.74;100.00;95493.19;5060901;28;20201;-85
2022/08/15 08:07:03;;;;;;;5.10;4.40;;;;;;;19.75;100.00;95497.56;5060195;28;20276;-86
2022/08/15 08:09:40;;;;;;;5.75;4.28;;;;;;;19.86;100.00;95490.72;5060228;28;20220;-87
2022/08/15 08:12:22;;;;;;;6.32;4.22;;;;;;;20.02;100.00;95487.31;5052726;28;20212;-85
2022/08/15 08:15:02;;;;;;;5.07;4.57;;;;;;;20.17;100.00;95491.63;5072824;28;20217;-85
2022/08/15 08:17:38;;;;;;;4.80;4.28;;;;;;;20.06;100.00;95476.56;5054335;28;20262;-87
2022/08/15 08:20:16;;;;;;;5.18;4.68;;;;;;;20.24;100.00;95482.97;5081330;28;20201;-85
2022/08/15 08:22:55;;;;;;;5.55;4.43;;;;;;;20.44;100.00;95484.41;5064235;28;20206;-85
2022/08/15 08:25:28;;;;;;;6.65;4.32;;;;;;;20.67;100.00;95488.75;5063613;28;20205;-85
2022/08/15 08:28:13;;;;;;;4.75;4.22;;;;;;;20.74;100.00;95478.13;5061879;28;20205;-85
2022/08/15 08:30:55;;;;;;;5.03;4.00;;;;;;;20.73;100.00;95477.31;5058970;28;20225;-85
2022/08/15 08:33:38;;;;;;;5.20;4.40;;;;;;;20.90;100.00;95471.09;5073209;28;20213;-85
2022/08/15 08:36:18;;;;;;;4.57;4.18;;;;;;;20.88;100.00;95470.59;5059887;28;20212;-86
2022/08/15 08:38:53;;;;;;;5.05;4.55;;;;;;;20.78;100.00;95471.69;5066372;28;20201;-85
2022/08/15 08:41:31;;;;;;;4.75;4.22;;;;;;;21.02;100.00;95470.47;5064219;28;20213;-86
2022/08/15 08:44:12;;;;;;;5.85;4.30;;;;;;;21.42;100.00;95474.03;5082812;28;20205;-87
2022/08/15 08:46:56;;;;;;;5.10;4.05;;;;;;;21.84;100.00;95464.22;5064360;28;20204;-85
2022/08/15 08:49:32;;;;;;;6.43;3.90;;;;;;;22.16;100.00;95466.50;5064446;28;20254;-86
2022/08/15 08:52:08;;;;;;;4.30;3.90;;;;;;;22.20;100.00;95475.69;5076994;28;20205;-86
2022/08/15 08:54:41;;;;;;;5.30;4.40;;;;;;;22.47;100.00;95466.28;5060136;28;20236;-85
2022/08/15 08:57:19;;;;;;;5.07;4.57;;;;;;;22.58;100.00;95462.03;5059007;28;20225;-85
2022/08/15 08:59:54;;;;;;;5.35;4.50;;;;;;;22.71;100.00;95467.69;5063750;28;20210;-85
2022/08/15 09:02:27;;;;;;;5.20;3.97;;;;;;;23.05;100.00;95459.34;5063927;28;20209;-86
2022/08/15 09:05:00;;;;;;;5.72;4.55;;;;;;;23.45;100.00;95457.00;5066320;28;20213;-86
2022/08/15 09:07:32;;;;;;;4.78;3.70;;;;;;;23.70;89.38;95447.78;5062317;28;20303;-86
2022/08/15 09:10:06;;;;;;;3.88;3.58;;;;;;;23.66;90.44;95440.50;5054355;28;20275;-87
2022/08/15 09:15:28;;;;;;;7.15;3.90;;;;;;;24.01;89.69;95439.09;5062512;28;20213;-86
2022/08/15 09:18:01;;;;;;;6.70;4.35;;;;;;;24.12;86.37;95434.78;5068611;28;20205;-87
2022/08/15 09:20:32;;;;;;;4.75;3.85;;;;;;;24.08;89.37;95441.28;5061860;28;20216;-86
2022/08/15 09:23:04;;;;;;;3.95;3.60;;;;;;;24.20;91.44;95430.34;5063265;28;20267;-87
2022/08/15 09:25:34;;;;;;;4.30;3.90;;;;;;;24.10;92.79;95422.47;5061695;28;20304;-85
2022/08/15 09:28:09;;;;;;;6.80;3.90;;;;;;;23.91;93.88;95403.66;5057566;28;20272;-86
2022/08/15 09:30:40;;;;;;;4.75;4.00;;;;;;;23.93;92.13;95415.16;5064071;28;20232;-86
2022/08/15 09:33:18;;;;;;;3.50;3.20;;;;;;;24.35;90.76;95407.66;5054715;28;20218;-86
2022/08/15 09:36:14;;;;;;;5.10;3.25;;;;;;;24.68;79.28;95413.13;5064553;28;20205;-86
2022/08/15 09:38:48;;;;;;;4.07;3.25;;;;;;;25.02;81.68;95403.63;5066259;28;20224;-86
2022/08/15 09:41:42;;;;;;;4.90;3.47;;;;;;;24.99;77.08;95412.63;5084088;28;20237;-86
2022/08/15 09:44:41;;;;;;;5.45;3.47;;;;;;;24.70;80.17;95398.97;5060135;28;20228;-87
2022/08/15 09:47:25;;;;;;;3.72;3.42;;;;;;;24.79;81.12;95394.97;5056814;28;20205;-87
2022/08/15 09:50:32;;;;;;;4.63;3.70;;;;;;;24.94;78.61;95399.03;5057753;28;20256;-86
2022/08/15 09:53:06;;;;;;;3.80;3.40;;;;;;;25.04;77.70;95386.72;5069191;28;20213;-86
2022/08/15 09:55:43;;;;;;;5.47;3.65;;;;;;;25.36;77.29;95387.72;5067877;28;20284;-87
2022/08/15 09:58:20;;;;;;;5.60;3.40;;;;;;;25.52;70.36;95380.34;5066679;28;20212;-86
2022/08/15 10:01:03;;;;;;;4.45;3.47;;;;;;;25.66;72.51;95388.28;5067716;28;20217;-86
2022/08/15 10:03:54;;;;;;;5.93;3.40;;;;;;;25.89;69.04;95375.53;5067079;28;20209;-86
2022/08/15 10:06:24;;;;;;;3.95;3.58;;;;;;;26.03;70.60;95377.91;5067932;28;20248;-87
2022/08/15 10:09:16;;;;;;;4.35;3.30;;;;;;;26.16;72.10;95374.72;5055359;28;20216;-87
2022/08/15 10:12:01;;;;;;;5.65;3.80;;;;;;;26.16;68.56;95373.91;5069722;28;20242;-87
2022/08/15 10:14:40;;;;;;;3.47;3.17;;;;;;;26.24;70.19;95359.94;5058946;28;20229;-86
2022/08/15 10:17:27;;;;;;;5.03;3.35;;;;;;;26.24;68.56;95361.88;5067528;28;20199;-86
2022/08/15 10:19:57;;;;;;;3.75;3.40;;;;;;;26.31;69.91;95359.34;5061078;28;20296;-87
2022/08/15 10:22:52;;;;;;;3.72;3.40;;;;;;;26.39;65.40;95355.59;5066016;28;20267;-86
2022/08/15 10:25:28;;;;;;;4.32;3.38;;;;;;;26.21;62.97;95344.03;5004813;28;20316;-86
2022/08/15 10:28:05;;;;;;;4.05;3.17;;;;;;;26.25;63.16;95346.91;5061671;28;20232;-86
2022/08/15 10:30:35;;;;;;;4.68;3.20;;;;;;;26.19;62.82;95334.50;5063625;28;20208;-86
2022/08/15 10:33:30;;;;;;;3.78;3.47;;;;;;;26.24;64.34;95326.72;5057133;28;20212;-86
2022/08/15 10:36:19;;;;;;;3.83;3.42;;;;;;;26.63;59.80;95330.53;5059918;28;20197;-86
2022/08/15 10:38:51;;;;;;;4.28;3.40;;;;;;;26.55;59.58;95336.22;5080764;28;20213;-86
2022/08/15 10:41:31;;;;;;;4.53;3.30;;;;;;;26.18;59.66;95319.03;5060029;28;20233;-86
2022/08/15 10:44:12;;;;;;;4.75;3.38;;;;;;;26.12;63.00;95312.13;5053648;28;20214;-86
2022/08/15 10:46:59;;;;;;;3.47;3.10;;;;;;;26.54;61.21;95313.28;5078606;28;20238;-86
2022/08/15 10:49:35;;;;;;;5.60;3.15;;;;;;;26.69;59.57;95320.00;5060948;28;20240;-86
2022/08/15 10:52:20;;;;;;;3.95;2.78;;;;;;;26.79;58.80;95313.94;5061291;28;20212;-86
2022/08/15 10:55:25;;;;;;;3.38;3.08;;;;;;;27.03;59.77;95299.88;5053438;28;20230;-86
2022/08/15 10:57:55;;;;;;;3.55;3.25;;;;;;;27.27;60.78;95295.25;5065005;28;20316;-86
2022/08/15 11:00:42;;;;;;;4.20;2.90;;;;;;;27.37;57.97;95289.16;5064688;28;20221;-86
2022/08/15 11:03:18;;;;;;;4.28;3.30;;;;;;;27.57;59.75;95293.56;5057459;28;20273;-86
2022/08/15 11:06:02;;;;;;;3.50;3.15;;;;;;;27.48;59.81;95284.63;5064559;28;20300;-86
2022/08/15 11:08:31;;;;;;;3.03;2.80;;;;;;;27.44;60.03;95289.31;5063700;28;20206;-86
2022/08/15 11:11:07;;;;;;;2.88;2.65;;;;;;;27.39;60.38;95284.81;5065179;28;20205;-86
2022/08/15 11:13:36;;;;;;;3.42;2.90;;;;;;;27.06;60.86;95279.75;5063160;28;20225;-86
2022/08/15 11:16:14;;;;;;;5.70;3.40;;;;;;;26.61;61.03;95285.78;5063514;28;20204;-85
2022/08/15 11:18:51;;;;;;;3.55;3.00;;;;;;;26.30;64.37;95281.03;5082008;28;20209;-85
2022/08/15 11:21:33;;;;;;;6.93;3.60;;;;;;;25.91;64.03;95282.75;5061044;28;20221;-86
2022/08/15 11:24:06;;;;;;;4.00;3.28;;;;;;;25.75;67.27;95297.72;5056495;28;20209;-86
2022/08/15 11:26:35;;;;;;;3.83;3.45;;;;;;;25.62;68.83;95294.97;5062765;28;20218;-86
2022/08/15 11:29:14;;;;;;;4.75;3.60;;;;;;;25.33;68.29;95298.06;5061666;28;20228;-85
2022/08/15 11:31:50;;;;;;;5.32;3.50;;;;;;;25.09;73.90;95290.66;5061422;28;20220;-86
2022/08/15 11:34:25;;;;;;;5.18;3.28;;;;;;;24.87;77.80;95289.13;5061276;28;20232;-86
2022/08/15 11:36:58;;;;;;;4.45;3.65;;;;;;;24.68;80.12;95296.38;5066565;28;20217;-85
2022/08/15 11:39:28;;;;;;;7.85;5.90;;;;;;;24.50;83.44;95299.38;5055560;28;20229;-86
2022/08/15 11:42:00;;;;;;;10.20;9.23;;;;;;;24.35;88.61;95302.00;5060683;28;20213;-86
2022/08/15 11:44:37;;;;;;;5.35;4.03;;;;;;;24.27;92.30;95300.16;5061222;28;20200;-85
2022/08/15 11:47:06;;;;;;;5.35;4.03;;;;;;;24.04;97.64;95297.78;5063212;28;20281;-87
2022/08/15 11:49:42;;;;;;;4.38;3.95;;;;;;;23.92;97.77;95303.25;5074832;28;20233;-86
2022/08/15 11:52:11;;;;;;;20.92;18.95;;;;;;;23.74;100.00;95310.91;5062735;28;20324;-86
2022/08/15 11:54:42;;;;;;;7.68;5.90;;;;;;;23.67;100.00;95316.16;5059777;28;20226;-85
2022/08/15 11:57:22;;;;;;;4.90;4.35;;;;;;;23.56;100.00;95327.94;5057152;28;20230;-85
2022/08/15 12:00:12;;;;;;;5.68;5.03;;;;;;;23.31;100.00;95336.03;5058458;28;20304;-86
2022/08/15 12:02:39;;;;;;;5.10;4.00;;;;;;;23.16;100.00;95336.63;5055778;28;20198;-86
2022/08/15 12:05:13;;;;;;;4.47;3.20;;;;;;;23.22;100.00;95335.28;5062430;28;20288;-85
2022/08/15 12:07:45;;;;;;;4.25;3.85;;;;;;;23.31;100.00;95341.53;5062359;28;20210;-85
2022/08/15 12:10:32;;;;;;;55.00;49.20;;;;;;;23.24;100.00;95332.22;5056534;28;20218;-85
2022/08/15 12:13:00;;;;;;;13.23;11.85;;;;;;;23.69;100.00;95319.38;5051970;28;20220;-86